sensor_id;sensor_type;location;lat;lon;timestamp;P1;durP1;ratioP1;P2;durP2;ratioP2
6499;SDS011;3283;52.330;9.772;2022-08-19T00:01:49;15.70;;;9.33;;
6499;SDS011;3283;52.330;9.772;2022-08-19T00:04:16;14.03;;;8.53;;
6499;SDS011;3283;52.330;9.772;2022-08-19T00:06:45;18.20;;;9.50;;
6499;SDS011;3283;52.330;9.772;2022-08-19T00:09:12;14.80;;;8.80;;
6499;SDS011;3283;52.330;9.772;2022-08-19T00:11:39;20.10;;;8.37;;
6499;SDS011;3283;52.330;9.772;2022-08-19T00:14:06;15.70;;;8.60;;
6499;SDS011;3283;52.330;9.772;2022-08-19T00:16:33;22.77;;;8.90;;
6499;SDS011;3283;52.330;9.772;2022-08-19T00:18:59;18.03;;;9.13;;
6499;SDS011;3283;52.330;9.772;2022-08-19T00:21:25;17.90;;;9.57;;
6499;SDS011;3283;52.330;9.772;2022-08-19T00:23:52;22.90;;;11.30;;
6499;SDS011;3283;52.330;9.772;2022-08-19T00:26:18;17.40;;;8.60;;
6499;SDS011;3283;52.330;9.772;2022-08-19T00:28:44;14.40;;;8.30;;
6499;SDS011;3283;52.330;9.772;2022-08-19T00:31:11;18.53;;;8.90;;
6499;SDS011;3283;52.330;9.772;2022-08-19T00:33:36;18.50;;;9.97;;
6499;SDS011;3283;52.330;9.772;2022-08-19T00:36:03;14.43;;;8.50;;
6499;SDS011;3283;52.330;9.772;2022-08-19T00:38:30;24.80;;;11.47;;
6499;SDS011;3283;52.330;9.772;2022-08-19T00:40:56;15.77;;;9.30;;
6499;SDS011;3283;52.330;9.772;2022-08-19T00:43:22;16.73;;;9.70;;
6499;SDS011;3283;52.330;9.772;2022-08-19T00:45:50;17.90;;;8.73;;
6499;SDS011;3283;52.330;9.772;2022-08-19T00:48:17;21.90;;;9.17;;
6499;SDS011;3283;52.330;9.772;2022-08-19T00:50:44;18.03;;;10.00;;
6499;SDS011;3283;52.330;9.772;2022-08-19T00:53:14;19.40;;;9.53;;
6499;SDS011;3283;52.330;9.772;2022-08-19T00:55:47;16.70;;;8.87;;
6499;SDS011;3283;52.330;9.772;2022-08-19T00:58:16;18.50;;;8.80;;
6499;SDS011;3283;52.330;9.772;2022-08-19T01:00:44;21.80;;;10.83;;
6499;SDS011;3283;52.330;9.772;2022-08-19T01:03:12;15.83;;;9.00;;
6499;SDS011;3283;52.330;9.772;2022-08-19T01:05:41;17.07;;;9.63;;
6499;SDS011;3283;52.330;9.772;2022-08-19T01:08:08;17.73;;;9.80;;
6499;SDS011;3283;52.330;9.772;2022-08-19T01:10:46;16.97;;;9.63;;
6499;SDS011;3283;52.330;9.772;2022-08-19T01:13:19;15.27;;;8.93;;
6499;SDS011;3283;52.330;9.772;2022-08-19T01:15:53;17.03;;;9.63;;
6499;SDS011;3283;52.330;9.772;2022-08-19T01:18:22;14.67;;;9.50;;
6499;SDS011;3283;52.330;9.772;2022-08-19T01:20:49;18.20;;;10.30;;
6499;SDS011;3283;52.330;9.772;2022-08-19T01:23:16;23.13;;;10.83;;
6499;SDS011;3283;52.330;9.772;2022-08-19T01:25:44;20.47;;;10.23;;
6499;SDS011;3283;52.330;9.772;2022-08-19T01:28:16;17.43;;;9.07;;
6499;SDS011;3283;52.330;9.772;2022-08-19T01:30:44;17.07;;;9.23;;
6499;SDS011;3283;52.330;9.772;2022-08-19T01:33:10;20.03;;;8.57;;
6499;SDS011;3283;52.330;9.772;2022-08-19T01:35:37;18.73;;;9.07;;
6499;SDS011;3283;52.330;9.772;2022-08-19T01:38:03;15.03;;;9.60;;
6499;SDS011;3283;52.330;9.772;2022-08-19T01:40:33;17.83;;;10.10;;
6499;SDS011;3283;52.330;9.772;2022-08-19T01:43:00;16.67;;;9.33;;
6499;SDS011;3283;52.330;9.772;2022-08-19T01:45:29;17.10;;;10.43;;
6499;SDS011;3283;52.330;9.772;2022-08-19T01:47:56;19.40;;;10.53;;
6499;SDS011;3283;52.330;9.772;2022-08-19T01:50:23;17.53;;;9.87;;
6499;SDS011;3283;52.330;9.772;2022-08-19T01:52:49;15.93;;;10.00;;
6499;SDS011;3283;52.330;9.772;2022-08-19T01:55:16;18.43;;;10.47;;
6499;SDS011;3283;52.330;9.772;2022-08-19T01:57:50;17.07;;;9.00;;
6499;SDS011;3283;52.330;9.772;2022-08-19T02:00:20;19.20;;;10.20;;
6499;SDS011;3283;52.330;9.772;2022-08-19T02:02:48;17.27;;;10.37;;
6499;SDS011;3283;52.330;9.772;2022-08-19T02:05:14;17.13;;;10.43;;
6499;SDS011;3283;52.330;9.772;2022-08-19T02:07:42;17.60;;;10.97;;
6499;SDS011;3283;52.330;9.772;2022-08-19T02:10:10;23.00;;;10.93;;
6499;SDS011;3283;52.330;9.772;2022-08-19T02:12:38;24.33;;;10.40;;
6499;SDS011;3283;52.330;9.772;2022-08-19T02:15:04;20.47;;;10.40;;
6499;SDS011;3283;52.330;9.772;2022-08-19T02:17:31;25.47;;;11.10;;
6499;SDS011;3283;52.330;9.772;2022-08-19T02:19:56;17.43;;;8.77;;
6499;SDS011;3283;52.330;9.772;2022-08-19T02:22:22;21.30;;;10.47;;
6499;SDS011;3283;52.330;9.772;2022-08-19T02:24:50;18.57;;;10.67;;
6499;SDS011;3283;52.330;9.772;2022-08-19T02:27:19;20.13;;;10.33;;
6499;SDS011;3283;52.330;9.772;2022-08-19T02:29:46;18.70;;;9.80;;
6499;SDS011;3283;52.330;9.772;2022-08-19T02:32:13;20.70;;;10.00;;
6499;SDS011;3283;52.330;9.772;2022-08-19T02:34:39;18.50;;;10.30;;
6499;SDS011;3283;52.330;9.772;2022-08-19T02:37:05;15.23;;;9.70;;
6499;SDS011;3283;52.330;9.772;2022-08-19T02:39:30;16.47;;;9.47;;
6499;SDS011;3283;52.330;9.772;2022-08-19T02:41:58;24.93;;;11.67;;
6499;SDS011;3283;52.330;9.772;2022-08-19T02:44:24;14.60;;;9.17;;
6499;SDS011;3283;52.330;9.772;2022-08-19T02:46:50;15.63;;;9.53;;
6499;SDS011;3283;52.330;9.772;2022-08-19T02:49:15;16.90;;;9.80;;
6499;SDS011;3283;52.330;9.772;2022-08-19T02:51:42;19.57;;;10.00;;
6499;SDS011;3283;52.330;9.772;2022-08-19T02:54:10;19.37;;;11.27;;
6499;SDS011;3283;52.330;9.772;2022-08-19T02:56:38;19.83;;;10.60;;
6499;SDS011;3283;52.330;9.772;2022-08-19T02:59:05;16.60;;;9.97;;
6499;SDS011;3283;52.330;9.772;2022-08-19T03:01:36;18.60;;;10.70;;
6499;SDS011;3283;52.330;9.772;2022-08-19T03:04:05;17.20;;;10.37;;
6499;SDS011;3283;52.330;9.772;2022-08-19T03:06:34;16.67;;;9.70;;
6499;SDS011;3283;52.330;9.772;2022-08-19T03:09:01;25.67;;;11.43;;
6499;SDS011;3283;52.330;9.772;2022-08-19T03:11:28;22.07;;;10.43;;
6499;SDS011;3283;52.330;9.772;2022-08-19T03:13:55;29.77;;;13.73;;
6499;SDS011;3283;52.330;9.772;2022-08-19T03:16:22;17.73;;;8.47;;
6499;SDS011;3283;52.330;9.772;2022-08-19T03:18:50;15.60;;;9.60;;
6499;SDS011;3283;52.330;9.772;2022-08-19T03:21:17;21.77;;;9.37;;
6499;SDS011;3283;52.330;9.772;2022-08-19T03:23:43;22.30;;;11.17;;
6499;SDS011;3283;52.330;9.772;2022-08-19T03:26:09;14.20;;;9.10;;
6499;SDS011;3283;52.330;9.772;2022-08-19T03:28:35;16.17;;;8.80;;
6499;SDS011;3283;52.330;9.772;2022-08-19T03:31:04;21.07;;;10.00;;
6499;SDS011;3283;52.330;9.772;2022-08-19T03:33:32;16.50;;;9.00;;
6499;SDS011;3283;52.330;9.772;2022-08-19T03:35:59;17.03;;;9.50;;
6499;SDS011;3283;52.330;9.772;2022-08-19T03:38:26;15.77;;;9.13;;
6499;SDS011;3283;52.330;9.772;2022-08-19T03:40:51;26.37;;;9.03;;
6499;SDS011;3283;52.330;9.772;2022-08-19T03:43:17;18.67;;;9.83;;
6499;SDS011;3283;52.330;9.772;2022-08-19T03:45:43;16.73;;;9.97;;
6499;SDS011;3283;52.330;9.772;2022-08-19T03:48:08;14.47;;;8.90;;
6499;SDS011;3283;52.330;9.772;2022-08-19T03:50:38;19.30;;;9.13;;
6499;SDS011;3283;52.330;9.772;2022-08-19T03:53:04;14.00;;;8.80;;
6499;SDS011;3283;52.330;9.772;2022-08-19T03:55:31;15.10;;;8.40;;
6499;SDS011;3283;52.330;9.772;2022-08-19T03:57:56;15.17;;;8.80;;
6499;SDS011;3283;52.330;9.772;2022-08-19T04:00:22;16.33;;;8.20;;
6499;SDS011;3283;52.330;9.772;2022-08-19T04:02:47;19.90;;;9.57;;
6499;SDS011;3283;52.330;9.772;2022-08-19T04:05:12;18.80;;;8.53;;
6499;SDS011;3283;52.330;9.772;2022-08-19T04:07:39;16.90;;;9.70;;
6499;SDS011;3283;52.330;9.772;2022-08-19T04:10:04;14.73;;;8.30;;
6499;SDS011;3283;52.330;9.772;2022-08-19T04:12:30;22.80;;;10.10;;
6499;SDS011;3283;52.330;9.772;2022-08-19T04:14:56;15.53;;;8.43;;
6499;SDS011;3283;52.330;9.772;2022-08-19T04:17:21;21.00;;;10.40;;
6499;SDS011;3283;52.330;9.772;2022-08-19T04:19:47;15.40;;;8.93;;
6499;SDS011;3283;52.330;9.772;2022-08-19T04:22:12;18.43;;;9.20;;
6499;SDS011;3283;52.330;9.772;2022-08-19T04:24:38;18.47;;;9.93;;
6499;SDS011;3283;52.330;9.772;2022-08-19T04:27:03;15.83;;;10.10;;
6499;SDS011;3283;52.330;9.772;2022-08-19T04:29:30;23.93;;;10.93;;
6499;SDS011;3283;52.330;9.772;2022-08-19T04:31:56;18.67;;;8.80;;
6499;SDS011;3283;52.330;9.772;2022-08-19T04:34:25;15.90;;;9.67;;
6499;SDS011;3283;52.330;9.772;2022-08-19T04:36:53;16.90;;;9.30;;
6499;SDS011;3283;52.330;9.772;2022-08-19T04:39:21;15.27;;;9.70;;
6499;SDS011;3283;52.330;9.772;2022-08-19T04:42:08;21.43;;;10.50;;
6499;SDS011;3283;52.330;9.772;2022-08-19T04:44:52;16.50;;;9.40;;
6499;SDS011;3283;52.330;9.772;2022-08-19T04:47:18;23.27;;;10.17;;
6499;SDS011;3283;52.330;9.772;2022-08-19T04:49:43;13.90;;;8.90;;
6499;SDS011;3283;52.330;9.772;2022-08-19T04:52:08;16.47;;;9.77;;
6499;SDS011;3283;52.330;9.772;2022-08-19T04:54:34;15.83;;;10.57;;
6499;SDS011;3283;52.330;9.772;2022-08-19T04:56:59;17.97;;;10.40;;
6499;SDS011;3283;52.330;9.772;2022-08-19T04:59:25;18.47;;;9.63;;
6499;SDS011;3283;52.330;9.772;2022-08-19T05:01:50;30.43;;;11.27;;
6499;SDS011;3283;52.330;9.772;2022-08-19T05:04:17;14.50;;;9.23;;
6499;SDS011;3283;52.330;9.772;2022-08-19T05:06:44;18.27;;;8.60;;
6499;SDS011;3283;52.330;9.772;2022-08-19T05:09:12;22.07;;;11.10;;
6499;SDS011;3283;52.330;9.772;2022-08-19T05:11:37;22.70;;;12.27;;
6499;SDS011;3283;52.330;9.772;2022-08-19T05:14:04;21.40;;;10.17;;
6499;SDS011;3283;52.330;9.772;2022-08-19T05:16:33;14.23;;;8.17;;
6499;SDS011;3283;52.330;9.772;2022-08-19T05:18:59;15.67;;;8.53;;
6499;SDS011;3283;52.330;9.772;2022-08-19T05:21:44;18.07;;;9.50;;
6499;SDS011;3283;52.330;9.772;2022-08-19T05:24:28;17.07;;;9.33;;
6499;SDS011;3283;52.330;9.772;2022-08-19T05:26:54;18.43;;;9.10;;
6499;SDS011;3283;52.330;9.772;2022-08-19T05:29:24;17.73;;;8.30;;
6499;SDS011;3283;52.330;9.772;2022-08-19T05:31:51;20.00;;;10.00;;
6499;SDS011;3283;52.330;9.772;2022-08-19T05:34:18;17.83;;;9.80;;
6499;SDS011;3283;52.330;9.772;2022-08-19T05:36:47;20.13;;;10.07;;
6499;SDS011;3283;52.330;9.772;2022-08-19T05:39:15;23.77;;;9.63;;
6499;SDS011;3283;52.330;9.772;2022-08-19T05:41:43;16.90;;;10.00;;
6499;SDS011;3283;52.330;9.772;2022-08-19T05:44:11;18.83;;;10.43;;
6499;SDS011;3283;52.330;9.772;2022-08-19T05:46:37;20.10;;;10.53;;
6499;SDS011;3283;52.330;9.772;2022-08-19T05:49:04;16.87;;;9.67;;
6499;SDS011;3283;52.330;9.772;2022-08-19T05:51:31;23.23;;;11.07;;
6499;SDS011;3283;52.330;9.772;2022-08-19T05:53:58;25.10;;;12.00;;
6499;SDS011;3283;52.330;9.772;2022-08-19T05:56:24;17.73;;;10.20;;
6499;SDS011;3283;52.330;9.772;2022-08-19T05:58:50;16.33;;;10.80;;
6499;SDS011;3283;52.330;9.772;2022-08-19T06:01:16;17.93;;;11.00;;
6499;SDS011;3283;52.330;9.772;2022-08-19T06:03:43;28.60;;;13.77;;
6499;SDS011;3283;52.330;9.772;2022-08-19T06:06:10;22.13;;;11.73;;
6499;SDS011;3283;52.330;9.772;2022-08-19T06:08:37;26.13;;;12.73;;
6499;SDS011;3283;52.330;9.772;2022-08-19T06:11:14;25.47;;;12.97;;
6499;SDS011;3283;52.330;9.772;2022-08-19T06:13:42;32.37;;;13.60;;
6499;SDS011;3283;52.330;9.772;2022-08-19T06:16:12;27.50;;;14.10;;
6499;SDS011;3283;52.330;9.772;2022-08-19T06:18:37;35.13;;;16.73;;
6499;SDS011;3283;52.330;9.772;2022-08-19T06:21:03;28.50;;;13.47;;
6499;SDS011;3283;52.330;9.772;2022-08-19T06:23:29;30.23;;;16.20;;
6499;SDS011;3283;52.330;9.772;2022-08-19T06:25:55;32.50;;;15.07;;
6499;SDS011;3283;52.330;9.772;2022-08-19T06:28:21;33.37;;;16.37;;
6499;SDS011;3283;52.330;9.772;2022-08-19T06:30:48;21.70;;;12.70;;
6499;SDS011;3283;52.330;9.772;2022-08-19T06:33:14;24.10;;;14.83;;
6499;SDS011;3283;52.330;9.772;2022-08-19T06:35:40;29.47;;;15.30;;
6499;SDS011;3283;52.330;9.772;2022-08-19T06:38:06;28.73;;;14.60;;
6499;SDS011;3283;52.330;9.772;2022-08-19T06:40:31;32.70;;;17.10;;
6499;SDS011;3283;52.330;9.772;2022-08-19T06:42:56;25.13;;;13.37;;
6499;SDS011;3283;52.330;9.772;2022-08-19T06:45:24;24.47;;;14.30;;
6499;SDS011;3283;52.330;9.772;2022-08-19T06:47:50;25.63;;;14.63;;
6499;SDS011;3283;52.330;9.772;2022-08-19T06:50:20;30.27;;;15.97;;
6499;SDS011;3283;52.330;9.772;2022-08-19T06:52:47;25.33;;;13.63;;
6499;SDS011;3283;52.330;9.772;2022-08-19T06:55:12;30.03;;;16.00;;
6499;SDS011;3283;52.330;9.772;2022-08-19T06:57:38;26.07;;;13.97;;
6499;SDS011;3283;52.330;9.772;2022-08-19T07:00:04;26.90;;;14.97;;
6499;SDS011;3283;52.330;9.772;2022-08-19T07:02:33;28.00;;;15.20;;
6499;SDS011;3283;52.330;9.772;2022-08-19T07:05:02;24.47;;;13.70;;
6499;SDS011;3283;52.330;9.772;2022-08-19T07:07:28;31.87;;;16.40;;
6499;SDS011;3283;52.330;9.772;2022-08-19T07:09:54;24.67;;;15.33;;
6499;SDS011;3283;52.330;9.772;2022-08-19T07:12:19;25.50;;;15.13;;
6499;SDS011;3283;52.330;9.772;2022-08-19T07:14:45;22.33;;;13.60;;
6499;SDS011;3283;52.330;9.772;2022-08-19T07:17:11;24.57;;;13.43;;
6499;SDS011;3283;52.330;9.772;2022-08-19T07:19:37;27.27;;;15.33;;
6499;SDS011;3283;52.330;9.772;2022-08-19T07:22:05;29.47;;;17.97;;
6499;SDS011;3283;52.330;9.772;2022-08-19T07:24:32;28.40;;;14.50;;
6499;SDS011;3283;52.330;9.772;2022-08-19T07:27:00;24.27;;;13.63;;
6499;SDS011;3283;52.330;9.772;2022-08-19T07:29:32;26.60;;;15.10;;
6499;SDS011;3283;52.330;9.772;2022-08-19T07:31:59;29.37;;;14.93;;
6499;SDS011;3283;52.330;9.772;2022-08-19T07:34:28;24.90;;;15.20;;
6499;SDS011;3283;52.330;9.772;2022-08-19T07:36:55;30.23;;;15.83;;
6499;SDS011;3283;52.330;9.772;2022-08-19T07:39:22;23.37;;;15.57;;
6499;SDS011;3283;52.330;9.772;2022-08-19T07:41:50;27.13;;;14.90;;
6499;SDS011;3283;52.330;9.772;2022-08-19T07:44:17;22.90;;;15.33;;
6499;SDS011;3283;52.330;9.772;2022-08-19T07:46:46;24.93;;;15.83;;
6499;SDS011;3283;52.330;9.772;2022-08-19T07:49:14;22.47;;;13.93;;
6499;SDS011;3283;52.330;9.772;2022-08-19T07:51:49;23.90;;;15.00;;
6499;SDS011;3283;52.330;9.772;2022-08-19T07:54:18;23.00;;;13.80;;
6499;SDS011;3283;52.330;9.772;2022-08-19T07:56:45;24.67;;;15.53;;
6499;SDS011;3283;52.330;9.772;2022-08-19T07:59:10;22.33;;;14.23;;
6499;SDS011;3283;52.330;9.772;2022-08-19T08:01:36;23.47;;;13.80;;
6499;SDS011;3283;52.330;9.772;2022-08-19T08:04:02;27.27;;;15.97;;
6499;SDS011;3283;52.330;9.772;2022-08-19T08:06:46;28.03;;;15.20;;
6499;SDS011;3283;52.330;9.772;2022-08-19T08:09:34;26.40;;;13.00;;
6499;SDS011;3283;52.330;9.772;2022-08-19T08:12:06;18.13;;;11.40;;
6499;SDS011;3283;52.330;9.772;2022-08-19T08:14:47;22.03;;;13.53;;
6499;SDS011;3283;52.330;9.772;2022-08-19T08:17:16;25.43;;;13.33;;
6499;SDS011;3283;52.330;9.772;2022-08-19T08:19:43;22.30;;;12.47;;
6499;SDS011;3283;52.330;9.772;2022-08-19T08:22:10;17.40;;;11.03;;
6499;SDS011;3283;52.330;9.772;2022-08-19T08:25:04;24.30;;;12.30;;
6499;SDS011;3283;52.330;9.772;2022-08-19T08:27:35;30.43;;;12.73;;
6499;SDS011;3283;52.330;9.772;2022-08-19T08:30:02;16.60;;;9.93;;
6499;SDS011;3283;52.330;9.772;2022-08-19T08:32:29;15.27;;;9.27;;
6499;SDS011;3283;52.330;9.772;2022-08-19T08:34:55;17.53;;;10.77;;
6499;SDS011;3283;52.330;9.772;2022-08-19T08:37:20;20.83;;;10.83;;
6499;SDS011;3283;52.330;9.772;2022-08-19T08:39:47;13.83;;;9.20;;
6499;SDS011;3283;52.330;9.772;2022-08-19T08:42:16;20.93;;;10.40;;
6499;SDS011;3283;52.330;9.772;2022-08-19T08:47:28;23.00;;;11.73;;
6499;SDS011;3283;52.330;9.772;2022-08-19T08:50:04;19.17;;;10.57;;
6499;SDS011;3283;52.330;9.772;2022-08-19T08:52:35;17.10;;;10.90;;
6499;SDS011;3283;52.330;9.772;2022-08-19T08:55:08;14.67;;;9.30;;
6499;SDS011;3283;52.330;9.772;2022-08-19T09:00:16;18.83;;;10.10;;
6499;SDS011;3283;52.330;9.772;2022-08-19T09:02:59;19.93;;;10.90;;
6499;SDS011;3283;52.330;9.772;2022-08-19T09:05:41;18.30;;;8.70;;
6499;SDS011;3283;52.330;9.772;2022-08-19T09:08:11;14.50;;;8.70;;
6499;SDS011;3283;52.330;9.772;2022-08-19T09:10:52;14.80;;;8.93;;
6499;SDS011;3283;52.330;9.772;2022-08-19T09:13:32;15.00;;;9.60;;
6499;SDS011;3283;52.330;9.772;2022-08-19T09:16:02;15.20;;;8.47;;
6499;SDS011;3283;52.330;9.772;2022-08-19T09:18:45;14.27;;;8.03;;
6499;SDS011;3283;52.330;9.772;2022-08-19T09:21:12;13.30;;;7.33;;
6499;SDS011;3283;52.330;9.772;2022-08-19T09:23:39;12.60;;;7.10;;
6499;SDS011;3283;52.330;9.772;2022-08-19T09:26:13;14.83;;;9.10;;
6499;SDS011;3283;52.330;9.772;2022-08-19T09:28:41;12.60;;;7.20;;
6499;SDS011;3283;52.330;9.772;2022-08-19T09:31:11;14.07;;;8.10;;
6499;SDS011;3283;52.330;9.772;2022-08-19T09:33:39;15.03;;;8.50;;
6499;SDS011;3283;52.330;9.772;2022-08-19T09:36:05;18.80;;;9.70;;
6499;SDS011;3283;52.330;9.772;2022-08-19T09:38:34;12.63;;;7.87;;
6499;SDS011;3283;52.330;9.772;2022-08-19T09:41:05;11.30;;;6.90;;
6499;SDS011;3283;52.330;9.772;2022-08-19T09:43:38;15.07;;;7.70;;
6499;SDS011;3283;52.330;9.772;2022-08-19T09:46:05;10.87;;;6.43;;
6499;SDS011;3283;52.330;9.772;2022-08-19T09:48:32;13.73;;;7.43;;
6499;SDS011;3283;52.330;9.772;2022-08-19T09:51:04;15.83;;;7.67;;
6499;SDS011;3283;52.330;9.772;2022-08-19T09:53:33;13.43;;;7.27;;
6499;SDS011;3283;52.330;9.772;2022-08-19T09:55:59;11.63;;;5.83;;
6499;SDS011;3283;52.330;9.772;2022-08-19T09:58:25;17.03;;;6.77;;
6499;SDS011;3283;52.330;9.772;2022-08-19T10:00:56;12.23;;;5.77;;
6499;SDS011;3283;52.330;9.772;2022-08-19T10:03:23;17.37;;;6.03;;
6499;SDS011;3283;52.330;9.772;2022-08-19T10:05:49;10.10;;;5.67;;
6499;SDS011;3283;52.330;9.772;2022-08-19T10:08:18;14.30;;;6.53;;
6499;SDS011;3283;52.330;9.772;2022-08-19T10:10:45;10.57;;;5.87;;
6499;SDS011;3283;52.330;9.772;2022-08-19T10:13:12;10.27;;;5.80;;
6499;SDS011;3283;52.330;9.772;2022-08-19T10:15:39;14.43;;;6.80;;
6499;SDS011;3283;52.330;9.772;2022-08-19T10:18:05;10.97;;;5.80;;
6499;SDS011;3283;52.330;9.772;2022-08-19T10:20:31;12.47;;;5.70;;
6499;SDS011;3283;52.330;9.772;2022-08-19T10:22:57;11.90;;;6.03;;
6499;SDS011;3283;52.330;9.772;2022-08-19T10:25:24;10.40;;;5.40;;
6499;SDS011;3283;52.330;9.772;2022-08-19T10:27:51;7.20;;;4.47;;
6499;SDS011;3283;52.330;9.772;2022-08-19T10:30:18;8.00;;;4.33;;
6499;SDS011;3283;52.330;9.772;2022-08-19T10:32:44;8.93;;;4.60;;
6499;SDS011;3283;52.330;9.772;2022-08-19T10:35:11;12.40;;;5.30;;
6499;SDS011;3283;52.330;9.772;2022-08-19T10:37:37;7.20;;;3.73;;
6499;SDS011;3283;52.330;9.772;2022-08-19T10:40:04;10.30;;;4.50;;
6499;SDS011;3283;52.330;9.772;2022-08-19T10:42:32;8.13;;;3.87;;
6499;SDS011;3283;52.330;9.772;2022-08-19T10:44:59;10.80;;;4.90;;
6499;SDS011;3283;52.330;9.772;2022-08-19T10:47:25;11.70;;;5.10;;
6499;SDS011;3283;52.330;9.772;2022-08-19T10:49:50;8.57;;;4.33;;
6499;SDS011;3283;52.330;9.772;2022-08-19T10:52:35;10.87;;;4.63;;
6499;SDS011;3283;52.330;9.772;2022-08-19T10:55:05;9.33;;;4.00;;
6499;SDS011;3283;52.330;9.772;2022-08-19T10:57:50;11.53;;;4.90;;
6499;SDS011;3283;52.330;9.772;2022-08-19T11:00:17;17.40;;;9.60;;
6499;SDS011;3283;52.330;9.772;2022-08-19T11:02:42;21.13;;;10.33;;
6499;SDS011;3283;52.330;9.772;2022-08-19T11:05:08;54.97;;;27.90;;
6499;SDS011;3283;52.330;9.772;2022-08-19T11:07:38;12.90;;;6.57;;
6499;SDS011;3283;52.330;9.772;2022-08-19T11:10:04;7.50;;;4.50;;
6499;SDS011;3283;52.330;9.772;2022-08-19T11:12:30;9.13;;;5.40;;
6499;SDS011;3283;52.330;9.772;2022-08-19T11:14:56;13.10;;;5.13;;
6499;SDS011;3283;52.330;9.772;2022-08-19T11:17:21;20.97;;;7.80;;
6499;SDS011;3283;52.330;9.772;2022-08-19T11:19:48;11.93;;;4.67;;
6499;SDS011;3283;52.330;9.772;2022-08-19T11:22:14;19.80;;;7.40;;
6499;SDS011;3283;52.330;9.772;2022-08-19T11:24:40;20.67;;;5.67;;
6499;SDS011;3283;52.330;9.772;2022-08-19T11:27:08;12.17;;;5.20;;
6499;SDS011;3283;52.330;9.772;2022-08-19T11:29:35;7.03;;;4.70;;
6499;SDS011;3283;52.330;9.772;2022-08-19T11:32:07;22.37;;;9.20;;
6499;SDS011;3283;52.330;9.772;2022-08-19T11:34:35;9.33;;;4.00;;
6499;SDS011;3283;52.330;9.772;2022-08-19T11:37:01;11.07;;;4.23;;
6499;SDS011;3283;52.330;9.772;2022-08-19T11:39:29;7.93;;;3.50;;
6499;SDS011;3283;52.330;9.772;2022-08-19T11:41:57;10.53;;;4.63;;
6499;SDS011;3283;52.330;9.772;2022-08-19T11:44:23;9.77;;;4.40;;
6499;SDS011;3283;52.330;9.772;2022-08-19T11:46:50;15.80;;;4.47;;
6499;SDS011;3283;52.330;9.772;2022-08-19T11:49:18;7.80;;;4.20;;
6499;SDS011;3283;52.330;9.772;2022-08-19T11:51:45;8.43;;;4.00;;
6499;SDS011;3283;52.330;9.772;2022-08-19T11:54:12;10.60;;;4.03;;
6499;SDS011;3283;52.330;9.772;2022-08-19T11:56:39;7.97;;;3.60;;
6499;SDS011;3283;52.330;9.772;2022-08-19T11:59:05;14.83;;;5.07;;
6499;SDS011;3283;52.330;9.772;2022-08-19T12:01:32;11.80;;;4.20;;
6499;SDS011;3283;52.330;9.772;2022-08-19T12:03:58;16.50;;;5.90;;
6499;SDS011;3283;52.330;9.772;2022-08-19T12:06:26;10.60;;;5.80;;
6499;SDS011;3283;52.330;9.772;2022-08-19T12:08:57;8.50;;;4.03;;
6499;SDS011;3283;52.330;9.772;2022-08-19T12:11:31;7.53;;;3.70;;
6499;SDS011;3283;52.330;9.772;2022-08-19T12:13:56;14.37;;;6.07;;
6499;SDS011;3283;52.330;9.772;2022-08-19T12:16:24;6.83;;;3.63;;
6499;SDS011;3283;52.330;9.772;2022-08-19T12:18:52;12.20;;;4.30;;
6499;SDS011;3283;52.330;9.772;2022-08-19T12:21:19;7.40;;;3.80;;
6499;SDS011;3283;52.330;9.772;2022-08-19T12:23:48;5.00;;;2.77;;
6499;SDS011;3283;52.330;9.772;2022-08-19T12:26:15;6.47;;;3.20;;
6499;SDS011;3283;52.330;9.772;2022-08-19T12:28:41;10.20;;;3.90;;
6499;SDS011;3283;52.330;9.772;2022-08-19T12:31:07;8.40;;;3.83;;
6499;SDS011;3283;52.330;9.772;2022-08-19T12:33:33;10.10;;;4.53;;
6499;SDS011;3283;52.330;9.772;2022-08-19T12:36:02;7.50;;;3.53;;
6499;SDS011;3283;52.330;9.772;2022-08-19T12:38:30;8.70;;;4.27;;
6499;SDS011;3283;52.330;9.772;2022-08-19T12:40:57;8.10;;;3.93;;
6499;SDS011;3283;52.330;9.772;2022-08-19T12:43:23;11.27;;;4.13;;
6499;SDS011;3283;52.330;9.772;2022-08-19T12:45:49;12.70;;;5.27;;
6499;SDS011;3283;52.330;9.772;2022-08-19T12:48:15;10.47;;;4.43;;
6499;SDS011;3283;52.330;9.772;2022-08-19T12:50:42;8.30;;;3.90;;
6499;SDS011;3283;52.330;9.772;2022-08-19T12:53:10;7.30;;;3.60;;
6499;SDS011;3283;52.330;9.772;2022-08-19T12:55:36;8.90;;;3.60;;
6499;SDS011;3283;52.330;9.772;2022-08-19T12:58:02;5.80;;;3.13;;
6499;SDS011;3283;52.330;9.772;2022-08-19T13:00:27;9.63;;;4.03;;
6499;SDS011;3283;52.330;9.772;2022-08-19T13:02:53;6.80;;;3.43;;
6499;SDS011;3283;52.330;9.772;2022-08-19T13:05:20;9.50;;;3.90;;
6499;SDS011;3283;52.330;9.772;2022-08-19T13:07:48;8.17;;;3.43;;
6499;SDS011;3283;52.330;9.772;2022-08-19T13:10:17;11.80;;;3.50;;
6499;SDS011;3283;52.330;9.772;2022-08-19T13:12:46;8.73;;;3.50;;
6499;SDS011;3283;52.330;9.772;2022-08-19T13:15:14;9.07;;;4.30;;
6499;SDS011;3283;52.330;9.772;2022-08-19T13:17:45;11.43;;;5.00;;
6499;SDS011;3283;52.330;9.772;2022-08-19T13:20:12;11.00;;;4.20;;
6499;SDS011;3283;52.330;9.772;2022-08-19T13:22:37;8.47;;;3.83;;
6499;SDS011;3283;52.330;9.772;2022-08-19T13:25:04;7.80;;;3.73;;
6499;SDS011;3283;52.330;9.772;2022-08-19T13:27:31;7.97;;;3.63;;
6499;SDS011;3283;52.330;9.772;2022-08-19T13:29:57;8.83;;;3.53;;
6499;SDS011;3283;52.330;9.772;2022-08-19T13:32:40;8.67;;;3.53;;
6499;SDS011;3283;52.330;9.772;2022-08-19T13:35:25;10.30;;;4.43;;
6499;SDS011;3283;52.330;9.772;2022-08-19T13:37:50;9.23;;;3.87;;
6499;SDS011;3283;52.330;9.772;2022-08-19T13:40:17;8.53;;;3.80;;
6499;SDS011;3283;52.330;9.772;2022-08-19T13:42:45;8.10;;;3.27;;
6499;SDS011;3283;52.330;9.772;2022-08-19T13:45:13;9.30;;;3.37;;
6499;SDS011;3283;52.330;9.772;2022-08-19T13:47:41;13.93;;;4.40;;
6499;SDS011;3283;52.330;9.772;2022-08-19T13:50:14;9.00;;;4.13;;
6499;SDS011;3283;52.330;9.772;2022-08-19T13:52:42;6.30;;;2.77;;
6499;SDS011;3283;52.330;9.772;2022-08-19T13:55:08;7.63;;;2.80;;
6499;SDS011;3283;52.330;9.772;2022-08-19T13:57:35;9.83;;;3.73;;
6499;SDS011;3283;52.330;9.772;2022-08-19T14:00:04;11.37;;;4.00;;
6499;SDS011;3283;52.330;9.772;2022-08-19T14:02:33;7.80;;;3.73;;
6499;SDS011;3283;52.330;9.772;2022-08-19T14:04:58;7.83;;;3.03;;
6499;SDS011;3283;52.330;9.772;2022-08-19T14:07:24;6.50;;;3.10;;
6499;SDS011;3283;52.330;9.772;2022-08-19T14:09:50;6.27;;;3.07;;
6499;SDS011;3283;52.330;9.772;2022-08-19T14:12:18;9.87;;;4.03;;
6499;SDS011;3283;52.330;9.772;2022-08-19T14:14:45;7.80;;;3.90;;
6499;SDS011;3283;52.330;9.772;2022-08-19T14:17:11;9.70;;;3.20;;
6499;SDS011;3283;52.330;9.772;2022-08-19T14:19:36;12.73;;;4.50;;
6499;SDS011;3283;52.330;9.772;2022-08-19T14:22:01;6.70;;;3.10;;
6499;SDS011;3283;52.330;9.772;2022-08-19T14:24:27;7.03;;;3.43;;
6499;SDS011;3283;52.330;9.772;2022-08-19T14:26:52;16.13;;;5.43;;
6499;SDS011;3283;52.330;9.772;2022-08-19T14:29:18;5.87;;;3.13;;
6499;SDS011;3283;52.330;9.772;2022-08-19T14:31:44;6.70;;;2.77;;
6499;SDS011;3283;52.330;9.772;2022-08-19T14:34:10;4.83;;;2.50;;
6499;SDS011;3283;52.330;9.772;2022-08-19T14:36:38;10.20;;;3.40;;
6499;SDS011;3283;52.330;9.772;2022-08-19T14:39:04;6.17;;;3.20;;
6499;SDS011;3283;52.330;9.772;2022-08-19T14:41:30;10.70;;;4.10;;
6499;SDS011;3283;52.330;9.772;2022-08-19T14:43:56;18.23;;;6.37;;
6499;SDS011;3283;52.330;9.772;2022-08-19T14:46:23;8.30;;;3.40;;
6499;SDS011;3283;52.330;9.772;2022-08-19T14:48:50;10.17;;;3.40;;
6499;SDS011;3283;52.330;9.772;2022-08-19T14:51:16;12.40;;;4.43;;
6499;SDS011;3283;52.330;9.772;2022-08-19T14:53:43;9.80;;;4.53;;
6499;SDS011;3283;52.330;9.772;2022-08-19T14:56:10;7.43;;;3.07;;
6499;SDS011;3283;52.330;9.772;2022-08-19T14:58:38;9.70;;;4.07;;
6499;SDS011;3283;52.330;9.772;2022-08-19T15:01:06;7.37;;;3.40;;
6499;SDS011;3283;52.330;9.772;2022-08-19T15:03:32;8.83;;;3.57;;
6499;SDS011;3283;52.330;9.772;2022-08-19T15:05:59;8.77;;;4.07;;
6499;SDS011;3283;52.330;9.772;2022-08-19T15:08:26;6.67;;;3.07;;
6499;SDS011;3283;52.330;9.772;2022-08-19T15:10:52;11.00;;;4.80;;